sensor_id;sensor_type;location;lat;lon;timestamp;P1;durP1;ratioP1;P2;durP2;ratioP2
1140;SDS011;559;48.628;8.924;2023-03-01T00:01:51;108.47;;;103.60;;
1140;SDS011;559;48.628;8.924;2023-03-01T00:04:17;105.53;;;100.50;;
1140;SDS011;559;48.628;8.924;2023-03-01T00:06:44;107.90;;;103.07;;
1140;SDS011;559;48.628;8.924;2023-03-01T00:09:11;111.43;;;106.47;;
1140;SDS011;559;48.628;8.924;2023-03-01T00:11:37;105.82;;;100.75;;
1140;SDS011;559;48.628;8.924;2023-03-01T00:14:05;102.25;;;97.40;;
1140;SDS011;559;48.628;8.924;2023-03-01T00:16:34;106.90;;;102.30;;
1140;SDS011;559;48.628;8.924;2023-03-01T00:19:02;109.38;;;104.38;;
1140;SDS011;559;48.628;8.924;2023-03-01T00:21:28;111.68;;;106.47;;
1140;SDS011;559;48.628;8.924;2023-03-01T00:23:55;111.35;;;106.07;;
1140;SDS011;559;48.628;8.924;2023-03-01T00:26:22;113.97;;;108.88;;
1140;SDS011;559;48.628;8.924;2023-03-01T00:28:50;113.55;;;108.35;;
1140;SDS011;559;48.628;8.924;2023-03-01T00:31:18;113.55;;;108.65;;
1140;SDS011;559;48.628;8.924;2023-03-01T00:33:45;112.10;;;106.72;;
1140;SDS011;559;48.628;8.924;2023-03-01T00:36:13;113.38;;;108.32;;
1140;SDS011;559;48.628;8.924;2023-03-01T00:38:41;118.63;;;112.70;;
1140;SDS011;559;48.628;8.924;2023-03-01T00:41:09;116.85;;;111.63;;
1140;SDS011;559;48.628;8.924;2023-03-01T00:43:37;112.90;;;108.05;;
1140;SDS011;559;48.628;8.924;2023-03-01T00:46:04;113.80;;;108.72;;
1140;SDS011;559;48.628;8.924;2023-03-01T00:48:33;112.93;;;107.95;;
1140;SDS011;559;48.628;8.924;2023-03-01T00:51:03;117.32;;;112.18;;
1140;SDS011;559;48.628;8.924;2023-03-01T00:53:31;109.55;;;104.80;;
1140;SDS011;559;48.628;8.924;2023-03-01T00:55:57;110.22;;;105.22;;
1140;SDS011;559;48.628;8.924;2023-03-01T00:58:24;111.50;;;106.60;;
1140;SDS011;559;48.628;8.924;2023-03-01T01:00:51;113.97;;;108.63;;
1140;SDS011;559;48.628;8.924;2023-03-01T01:03:18;114.13;;;109.05;;
1140;SDS011;559;48.628;8.924;2023-03-01T01:05:46;116.05;;;110.80;;
1140;SDS011;559;48.628;8.924;2023-03-01T01:08:12;111.28;;;106.28;;
1140;SDS011;559;48.628;8.924;2023-03-01T01:10:39;113.25;;;108.63;;
1140;SDS011;559;48.628;8.924;2023-03-01T01:13:05;112.68;;;107.78;;
1140;SDS011;559;48.628;8.924;2023-03-01T01:15:33;114.97;;;109.97;;
1140;SDS011;559;48.628;8.924;2023-03-01T01:18:00;111.85;;;106.80;;
1140;SDS011;559;48.628;8.924;2023-03-01T01:20:26;111.80;;;106.40;;
1140;SDS011;559;48.628;8.924;2023-03-01T01:22:54;116.38;;;111.25;;
1140;SDS011;559;48.628;8.924;2023-03-01T01:25:21;110.85;;;105.72;;
1140;SDS011;559;48.628;8.924;2023-03-01T01:27:49;116.75;;;111.47;;
1140;SDS011;559;48.628;8.924;2023-03-01T01:30:16;126.35;;;120.60;;
1140;SDS011;559;48.628;8.924;2023-03-01T01:32:43;113.43;;;108.22;;
1140;SDS011;559;48.628;8.924;2023-03-01T01:35:09;111.50;;;106.35;;
1140;SDS011;559;48.628;8.924;2023-03-01T01:37:36;116.00;;;110.60;;
1140;SDS011;559;48.628;8.924;2023-03-01T01:40:04;111.30;;;106.32;;
1140;SDS011;559;48.628;8.924;2023-03-01T01:42:31;106.72;;;101.82;;
1140;SDS011;559;48.628;8.924;2023-03-01T01:47:54;102.30;;;97.05;;
1140;SDS011;559;48.628;8.924;2023-03-01T01:50:22;114.63;;;109.22;;
1140;SDS011;559;48.628;8.924;2023-03-01T01:52:49;109.45;;;104.45;;
1140;SDS011;559;48.628;8.924;2023-03-01T01:55:18;99.22;;;94.72;;
1140;SDS011;559;48.628;8.924;2023-03-01T01:57:47;115.07;;;109.50;;
1140;SDS011;559;48.628;8.924;2023-03-01T02:00:16;113.05;;;107.80;;
1140;SDS011;559;48.628;8.924;2023-03-01T02:02:44;117.07;;;111.45;;
1140;SDS011;559;48.628;8.924;2023-03-01T02:05:14;110.85;;;105.38;;
1140;SDS011;559;48.628;8.924;2023-03-01T02:07:45;98.38;;;93.72;;
1140;SDS011;559;48.628;8.924;2023-03-01T02:10:12;110.43;;;105.18;;
1140;SDS011;559;48.628;8.924;2023-03-01T02:12:40;114.45;;;108.78;;
1140;SDS011;559;48.628;8.924;2023-03-01T02:15:07;112.38;;;107.15;;
1140;SDS011;559;48.628;8.924;2023-03-01T02:17:35;114.00;;;108.28;;
1140;SDS011;559;48.628;8.924;2023-03-01T02:20:04;102.07;;;96.68;;
1140;SDS011;559;48.628;8.924;2023-03-01T02:22:35;102.07;;;96.93;;
1140;SDS011;559;48.628;8.924;2023-03-01T02:25:06;103.30;;;98.35;;
1140;SDS011;559;48.628;8.924;2023-03-01T02:27:42;105.55;;;100.10;;
1140;SDS011;559;48.628;8.924;2023-03-01T02:30:15;108.30;;;102.80;;
1140;SDS011;559;48.628;8.924;2023-03-01T02:32:41;107.25;;;102.03;;
1140;SDS011;559;48.628;8.924;2023-03-01T02:35:08;107.67;;;102.17;;
1140;SDS011;559;48.628;8.924;2023-03-01T02:37:35;109.13;;;103.55;;
1140;SDS011;559;48.628;8.924;2023-03-01T02:40:03;110.53;;;105.22;;
1140;SDS011;559;48.628;8.924;2023-03-01T02:42:33;102.38;;;97.05;;
1140;SDS011;559;48.628;8.924;2023-03-01T02:45:02;106.13;;;100.43;;
1140;SDS011;559;48.628;8.924;2023-03-01T02:47:30;105.40;;;99.90;;
1140;SDS011;559;48.628;8.924;2023-03-01T02:49:57;109.85;;;104.47;;
1140;SDS011;559;48.628;8.924;2023-03-01T02:52:28;111.80;;;105.80;;
1140;SDS011;559;48.628;8.924;2023-03-01T02:55:00;104.20;;;98.80;;
1140;SDS011;559;48.628;8.924;2023-03-01T02:57:29;103.88;;;98.47;;
1140;SDS011;559;48.628;8.924;2023-03-01T02:59:57;104.47;;;99.22;;
1140;SDS011;559;48.628;8.924;2023-03-01T03:02:26;102.15;;;97.18;;
1140;SDS011;559;48.628;8.924;2023-03-01T03:05:04;107.63;;;102.13;;
1140;SDS011;559;48.628;8.924;2023-03-01T03:07:33;104.15;;;98.75;;
1140;SDS011;559;48.628;8.924;2023-03-01T03:10:00;102.53;;;97.15;;
1140;SDS011;559;48.628;8.924;2023-03-01T03:12:27;110.93;;;105.47;;
1140;SDS011;559;48.628;8.924;2023-03-01T03:14:54;107.82;;;102.10;;
1140;SDS011;559;48.628;8.924;2023-03-01T03:17:20;108.15;;;102.85;;
1140;SDS011;559;48.628;8.924;2023-03-01T03:19:47;108.68;;;103.38;;
1140;SDS011;559;48.628;8.924;2023-03-01T03:22:15;104.65;;;99.18;;
1140;SDS011;559;48.628;8.924;2023-03-01T03:24:41;105.38;;;99.80;;
1140;SDS011;559;48.628;8.924;2023-03-01T03:27:08;107.93;;;102.32;;
1140;SDS011;559;48.628;8.924;2023-03-01T03:29:34;101.00;;;95.57;;
1140;SDS011;559;48.628;8.924;2023-03-01T03:32:01;102.63;;;97.18;;
1140;SDS011;559;48.628;8.924;2023-03-01T03:34:28;105.53;;;100.03;;
1140;SDS011;559;48.628;8.924;2023-03-01T03:36:55;103.82;;;98.10;;
1140;SDS011;559;48.628;8.924;2023-03-01T03:39:25;105.45;;;99.78;;
1140;SDS011;559;48.628;8.924;2023-03-01T03:41:52;105.13;;;99.47;;
1140;SDS011;559;48.628;8.924;2023-03-01T03:44:19;107.57;;;101.95;;
1140;SDS011;559;48.628;8.924;2023-03-01T03:46:46;105.80;;;100.40;;
1140;SDS011;559;48.628;8.924;2023-03-01T03:49:12;103.60;;;98.00;;
1140;SDS011;559;48.628;8.924;2023-03-01T03:51:39;104.93;;;99.25;;
1140;SDS011;559;48.628;8.924;2023-03-01T03:54:05;102.88;;;97.65;;
1140;SDS011;559;48.628;8.924;2023-03-01T03:56:33;103.40;;;97.72;;
1140;SDS011;559;48.628;8.924;2023-03-01T03:59:00;104.85;;;99.75;;
1140;SDS011;559;48.628;8.924;2023-03-01T04:01:26;101.78;;;96.57;;
1140;SDS011;559;48.628;8.924;2023-03-01T04:03:52;102.20;;;96.90;;
1140;SDS011;559;48.628;8.924;2023-03-01T04:06:20;101.30;;;96.07;;
1140;SDS011;559;48.628;8.924;2023-03-01T04:08:47;109.03;;;103.22;;
1140;SDS011;559;48.628;8.924;2023-03-01T04:11:16;106.97;;;101.70;;
1140;SDS011;559;48.628;8.924;2023-03-01T04:13:56;103.80;;;98.80;;
1140;SDS011;559;48.628;8.924;2023-03-01T04:16:24;101.63;;;96.18;;
1140;SDS011;559;48.628;8.924;2023-03-01T04:18:51;101.07;;;95.75;;
1140;SDS011;559;48.628;8.924;2023-03-01T04:21:18;103.70;;;98.38;;
1140;SDS011;559;48.628;8.924;2023-03-01T04:23:45;103.15;;;97.68;;
1140;SDS011;559;48.628;8.924;2023-03-01T04:26:11;105.55;;;99.90;;
1140;SDS011;559;48.628;8.924;2023-03-01T04:28:39;104.05;;;98.63;;
1140;SDS011;559;48.628;8.924;2023-03-01T04:31:10;101.15;;;96.13;;
1140;SDS011;559;48.628;8.924;2023-03-01T04:33:41;101.85;;;96.30;;
1140;SDS011;559;48.628;8.924;2023-03-01T04:36:09;102.90;;;97.35;;
1140;SDS011;559;48.628;8.924;2023-03-01T04:38:36;106.70;;;101.10;;
1140;SDS011;559;48.628;8.924;2023-03-01T04:41:03;98.20;;;93.18;;
1140;SDS011;559;48.628;8.924;2023-03-01T04:43:30;105.53;;;100.18;;
1140;SDS011;559;48.628;8.924;2023-03-01T04:45:59;102.68;;;97.28;;
1140;SDS011;559;48.628;8.924;2023-03-01T04:48:29;105.82;;;100.35;;
1140;SDS011;559;48.628;8.924;2023-03-01T04:50:56;103.90;;;98.88;;
1140;SDS011;559;48.628;8.924;2023-03-01T04:53:22;102.57;;;97.28;;
1140;SDS011;559;48.628;8.924;2023-03-01T04:55:49;96.30;;;91.05;;
1140;SDS011;559;48.628;8.924;2023-03-01T04:58:16;104.55;;;98.95;;
1140;SDS011;559;48.628;8.924;2023-03-01T05:00:42;100.88;;;95.18;;
1140;SDS011;559;48.628;8.924;2023-03-01T05:03:09;94.22;;;89.00;;
1140;SDS011;559;48.628;8.924;2023-03-01T05:05:37;99.57;;;94.10;;
1140;SDS011;559;48.628;8.924;2023-03-01T05:08:05;98.25;;;92.60;;
1140;SDS011;559;48.628;8.924;2023-03-01T05:10:33;100.22;;;94.70;;
1140;SDS011;559;48.628;8.924;2023-03-01T05:13:01;101.63;;;95.70;;
1140;SDS011;559;48.628;8.924;2023-03-01T05:15:29;95.85;;;90.25;;
1140;SDS011;559;48.628;8.924;2023-03-01T05:17:56;95.40;;;89.72;;
1140;SDS011;559;48.628;8.924;2023-03-01T05:20:24;96.07;;;90.88;;
1140;SDS011;559;48.628;8.924;2023-03-01T05:22:54;92.82;;;87.63;;
1140;SDS011;559;48.628;8.924;2023-03-01T05:25:21;100.18;;;94.60;;
1140;SDS011;559;48.628;8.924;2023-03-01T05:27:48;96.05;;;90.15;;
1140;SDS011;559;48.628;8.924;2023-03-01T05:30:15;97.72;;;92.13;;
1140;SDS011;559;48.628;8.924;2023-03-01T05:32:42;94.65;;;89.13;;
1140;SDS011;559;48.628;8.924;2023-03-01T05:35:10;101.40;;;95.55;;
1140;SDS011;559;48.628;8.924;2023-03-01T05:37:39;101.13;;;95.72;;
1140;SDS011;559;48.628;8.924;2023-03-01T05:40:09;97.78;;;92.07;;
1140;SDS011;559;48.628;8.924;2023-03-01T05:42:41;103.47;;;97.60;;
1140;SDS011;559;48.628;8.924;2023-03-01T05:45:11;100.65;;;95.00;;
1140;SDS011;559;48.628;8.924;2023-03-01T05:47:39;97.15;;;91.72;;
1140;SDS011;559;48.628;8.924;2023-03-01T05:50:09;101.78;;;95.93;;
1140;SDS011;559;48.628;8.924;2023-03-01T05:52:37;96.60;;;90.85;;
1140;SDS011;559;48.628;8.924;2023-03-01T05:55:04;98.93;;;93.35;;
1140;SDS011;559;48.628;8.924;2023-03-01T05:57:33;97.43;;;92.30;;
1140;SDS011;559;48.628;8.924;2023-03-01T05:59:59;99.68;;;94.03;;
1140;SDS011;559;48.628;8.924;2023-03-01T06:02:26;101.28;;;95.50;;
1140;SDS011;559;48.628;8.924;2023-03-01T06:04:54;100.80;;;95.20;;
1140;SDS011;559;48.628;8.924;2023-03-01T06:07:20;107.90;;;101.65;;
1140;SDS011;559;48.628;8.924;2023-03-01T06:09:47;112.85;;;106.10;;
1140;SDS011;559;48.628;8.924;2023-03-01T06:12:13;108.72;;;102.10;;
1140;SDS011;559;48.628;8.924;2023-03-01T06:14:41;106.88;;;100.93;;
1140;SDS011;559;48.628;8.924;2023-03-01T06:17:08;109.72;;;103.55;;
1140;SDS011;559;48.628;8.924;2023-03-01T06:19:34;99.18;;;93.00;;
1140;SDS011;559;48.628;8.924;2023-03-01T06:22:01;101.03;;;95.18;;
1140;SDS011;559;48.628;8.924;2023-03-01T06:24:27;105.68;;;99.90;;
1140;SDS011;559;48.628;8.924;2023-03-01T06:26:54;100.43;;;94.32;;
1140;SDS011;559;48.628;8.924;2023-03-01T06:29:20;98.20;;;92.47;;
1140;SDS011;559;48.628;8.924;2023-03-01T06:31:48;107.25;;;101.05;;
1140;SDS011;559;48.628;8.924;2023-03-01T06:34:15;109.10;;;103.38;;
1140;SDS011;559;48.628;8.924;2023-03-01T06:36:42;104.18;;;98.22;;
1140;SDS011;559;48.628;8.924;2023-03-01T06:39:08;106.32;;;100.32;;
1140;SDS011;559;48.628;8.924;2023-03-01T06:41:35;105.38;;;98.63;;
1140;SDS011;559;48.628;8.924;2023-03-01T06:44:01;103.03;;;97.43;;
1140;SDS011;559;48.628;8.924;2023-03-01T06:46:28;106.55;;;100.75;;
1140;SDS011;559;48.628;8.924;2023-03-01T06:48:55;111.13;;;102.60;;
1140;SDS011;559;48.628;8.924;2023-03-01T06:51:22;103.85;;;97.47;;
1140;SDS011;559;48.628;8.924;2023-03-01T06:53:48;107.88;;;101.88;;
1140;SDS011;559;48.628;8.924;2023-03-01T06:56:15;108.90;;;102.75;;
1140;SDS011;559;48.628;8.924;2023-03-01T06:58:41;109.75;;;103.88;;
1140;SDS011;559;48.628;8.924;2023-03-01T07:01:08;105.03;;;99.20;;
1140;SDS011;559;48.628;8.924;2023-03-01T07:03:35;99.72;;;93.80;;
1140;SDS011;559;48.628;8.924;2023-03-01T07:06:03;94.53;;;88.25;;
1140;SDS011;559;48.628;8.924;2023-03-01T07:08:30;96.35;;;90.72;;
1140;SDS011;559;48.628;8.924;2023-03-01T07:10:56;98.88;;;92.95;;
1140;SDS011;559;48.628;8.924;2023-03-01T07:13:23;97.45;;;91.25;;
1140;SDS011;559;48.628;8.924;2023-03-01T07:15:49;100.35;;;94.20;;
1140;SDS011;559;48.628;8.924;2023-03-01T07:18:16;100.10;;;93.75;;
1140;SDS011;559;48.628;8.924;2023-03-01T07:20:42;104.05;;;96.88;;
1140;SDS011;559;48.628;8.924;2023-03-01T07:23:10;103.07;;;96.57;;
1140;SDS011;559;48.628;8.924;2023-03-01T07:25:37;100.07;;;94.03;;
1140;SDS011;559;48.628;8.924;2023-03-01T07:28:03;103.45;;;96.85;;
1140;SDS011;559;48.628;8.924;2023-03-01T07:30:30;101.07;;;95.05;;
1140;SDS011;559;48.628;8.924;2023-03-01T07:32:57;98.57;;;93.07;;
1140;SDS011;559;48.628;8.924;2023-03-01T07:35:24;102.50;;;96.63;;
1140;SDS011;559;48.628;8.924;2023-03-01T07:37:51;98.93;;;93.53;;
1140;SDS011;559;48.628;8.924;2023-03-01T07:40:20;98.00;;;92.68;;
1140;SDS011;559;48.628;8.924;2023-03-01T07:42:46;100.35;;;94.38;;
1140;SDS011;559;48.628;8.924;2023-03-01T07:45:13;101.85;;;96.10;;
1140;SDS011;559;48.628;8.924;2023-03-01T07:47:39;101.88;;;96.15;;
1140;SDS011;559;48.628;8.924;2023-03-01T07:50:06;100.25;;;94.65;;
1140;SDS011;559;48.628;8.924;2023-03-01T07:52:33;100.75;;;95.05;;
1140;SDS011;559;48.628;8.924;2023-03-01T07:55:00;97.53;;;92.28;;
1140;SDS011;559;48.628;8.924;2023-03-01T07:57:28;101.85;;;95.78;;
1140;SDS011;559;48.628;8.924;2023-03-01T07:59:54;107.63;;;101.80;;
1140;SDS011;559;48.628;8.924;2023-03-01T08:02:21;110.30;;;104.32;;
1140;SDS011;559;48.628;8.924;2023-03-01T08:04:47;106.72;;;101.10;;
1140;SDS011;559;48.628;8.924;2023-03-01T08:07:14;107.22;;;101.53;;
1140;SDS011;559;48.628;8.924;2023-03-01T08:09:40;108.45;;;102.38;;
1140;SDS011;559;48.628;8.924;2023-03-01T08:12:07;108.00;;;102.20;;
1140;SDS011;559;48.628;8.924;2023-03-01T08:14:34;106.50;;;100.70;;
1140;SDS011;559;48.628;8.924;2023-03-01T08:17:01;104.43;;;98.65;;
1140;SDS011;559;48.628;8.924;2023-03-01T08:19:29;103.75;;;97.97;;
1140;SDS011;559;48.628;8.924;2023-03-01T08:21:55;109.70;;;103.97;;
1140;SDS011;559;48.628;8.924;2023-03-01T08:24:23;107.20;;;101.60;;
1140;SDS011;559;48.628;8.924;2023-03-01T08:26:49;110.00;;;104.47;;
1140;SDS011;559;48.628;8.924;2023-03-01T08:29:16;110.75;;;104.90;;
1140;SDS011;559;48.628;8.924;2023-03-01T08:31:44;110.32;;;104.43;;
1140;SDS011;559;48.628;8.924;2023-03-01T08:34:11;111.85;;;106.05;;
1140;SDS011;559;48.628;8.924;2023-03-01T08:36:39;120.32;;;114.45;;
1140;SDS011;559;48.628;8.924;2023-03-01T08:39:07;112.93;;;107.72;;
1140;SDS011;559;48.628;8.924;2023-03-01T08:41:34;111.85;;;106.95;;
1140;SDS011;559;48.628;8.924;2023-03-01T08:44:01;105.93;;;100.80;;
1140;SDS011;559;48.628;8.924;2023-03-01T08:46:27;110.32;;;104.15;;
1140;SDS011;559;48.628;8.924;2023-03-01T08:48:56;103.40;;;98.88;;
1140;SDS011;559;48.628;8.924;2023-03-01T08:51:23;104.13;;;99.23;;
1140;SDS011;559;48.628;8.924;2023-03-01T08:53:51;97.82;;;93.38;;
1140;SDS011;559;48.628;8.924;2023-03-01T08:56:18;89.32;;;85.35;;
1140;SDS011;559;48.628;8.924;2023-03-01T08:58:45;85.15;;;81.20;;
1140;SDS011;559;48.628;8.924;2023-03-01T09:01:13;84.80;;;80.90;;
1140;SDS011;559;48.628;8.924;2023-03-01T09:03:40;82.57;;;78.68;;
1140;SDS011;559;48.628;8.924;2023-03-01T09:06:09;69.90;;;66.20;;
1140;SDS011;559;48.628;8.924;2023-03-01T09:08:36;76.75;;;72.95;;
1140;SDS011;559;48.628;8.924;2023-03-01T09:11:04;73.95;;;70.47;;
1140;SDS011;559;48.628;8.924;2023-03-01T09:13:31;73.78;;;70.20;;
1140;SDS011;559;48.628;8.924;2023-03-01T09:15:58;73.82;;;70.30;;
1140;SDS011;559;48.628;8.924;2023-03-01T09:18:25;66.47;;;62.65;;
1140;SDS011;559;48.628;8.924;2023-03-01T09:20:51;77.72;;;74.05;;
1140;SDS011;559;48.628;8.924;2023-03-01T09:23:21;79.15;;;75.25;;
1140;SDS011;559;48.628;8.924;2023-03-01T09:25:47;64.03;;;60.47;;
1140;SDS011;559;48.628;8.924;2023-03-01T09:28:14;58.08;;;54.63;;
1140;SDS011;559;48.628;8.924;2023-03-01T09:30:40;58.40;;;54.80;;
1140;SDS011;559;48.628;8.924;2023-03-01T09:33:07;37.67;;;35.17;;
1140;SDS011;559;48.628;8.924;2023-03-01T09:35:39;42.55;;;39.65;;
1140;SDS011;559;48.628;8.924;2023-03-01T09:38:11;46.65;;;42.97;;
1140;SDS011;559;48.628;8.924;2023-03-01T09:40:41;41.42;;;38.53;;
1140;SDS011;559;48.628;8.924;2023-03-01T09:43:11;42.80;;;39.90;;
1140;SDS011;559;48.628;8.924;2023-03-01T09:45:43;42.55;;;39.33;;
1140;SDS011;559;48.628;8.924;2023-03-01T09:48:12;46.28;;;42.97;;
1140;SDS011;559;48.628;8.924;2023-03-01T09:50:43;57.25;;;53.85;;
1140;SDS011;559;48.628;8.924;2023-03-01T09:53:13;57.45;;;53.95;;
1140;SDS011;559;48.628;8.924;2023-03-01T09:55:43;58.50;;;54.95;;
1140;SDS011;559;48.628;8.924;2023-03-01T09:58:24;57.42;;;50.83;;
1140;SDS011;559;48.628;8.924;2023-03-01T10:00:56;50.97;;;47.45;;
1140;SDS011;559;48.628;8.924;2023-03-01T10:03:26;54.65;;;51.65;;
1140;SDS011;559;48.628;8.924;2023-03-01T10:05:56;55.53;;;52.33;;
1140;SDS011;559;48.628;8.924;2023-03-01T10:08:26;37.78;;;35.08;;
1140;SDS011;559;48.628;8.924;2023-03-01T10:10:57;43.03;;;39.90;;
1140;SDS011;559;48.628;8.924;2023-03-01T10:13:25;33.42;;;30.90;;
1140;SDS011;559;48.628;8.924;2023-03-01T10:15:55;30.83;;;28.63;;
1140;SDS011;559;48.628;8.924;2023-03-01T10:18:24;37.97;;;34.90;;
1140;SDS011;559;48.628;8.924;2023-03-01T10:20:53;34.17;;;31.38;;
1140;SDS011;559;48.628;8.924;2023-03-01T10:23:22;36.90;;;33.78;;
1140;SDS011;559;48.628;8.924;2023-03-01T10:25:54;31.25;;;28.65;;
1140;SDS011;559;48.628;8.924;2023-03-01T10:28:30;35.63;;;31.80;;
1140;SDS011;559;48.628;8.924;2023-03-01T10:31:03;27.77;;;25.70;;
1140;SDS011;559;48.628;8.924;2023-03-01T10:33:30;27.55;;;25.45;;
1140;SDS011;559;48.628;8.924;2023-03-01T10:35:58;24.73;;;20.73;;
1140;SDS011;559;48.628;8.924;2023-03-01T10:38:25;21.40;;;19.13;;
1140;SDS011;559;48.628;8.924;2023-03-01T10:40:53;22.70;;;19.77;;
1140;SDS011;559;48.628;8.924;2023-03-01T10:43:23;23.90;;;21.33;;
1140;SDS011;559;48.628;8.924;2023-03-01T10:45:50;24.67;;;22.23;;
1140;SDS011;559;48.628;8.924;2023-03-01T10:48:17;21.25;;;19.17;;
1140;SDS011;559;48.628;8.924;2023-03-01T10:50:49;22.92;;;18.55;;
1140;SDS011;559;48.628;8.924;2023-03-01T10:53:19;19.10;;;17.27;;
1140;SDS011;559;48.628;8.924;2023-03-01T10:55:55;20.52;;;18.05;;
1140;SDS011;559;48.628;8.924;2023-03-01T10:58:24;19.67;;;17.67;;
1140;SDS011;559;48.628;8.924;2023-03-01T11:00:51;23.70;;;19.42;;
1140;SDS011;559;48.628;8.924;2023-03-01T11:03:21;20.67;;;17.33;;
1140;SDS011;559;48.628;8.924;2023-03-01T11:05:53;20.15;;;18.02;;
1140;SDS011;559;48.628;8.924;2023-03-01T11:08:37;19.23;;;16.08;;
1140;SDS011;559;48.628;8.924;2023-03-01T11:11:08;21.33;;;17.00;;
1140;SDS011;559;48.628;8.924;2023-03-01T11:13:55;19.90;;;17.75;;
1140;SDS011;559;48.628;8.924;2023-03-01T11:16:27;21.92;;;18.20;;
1140;SDS011;559;48.628;8.924;2023-03-01T11:18:55;22.38;;;16.58;;
1140;SDS011;559;48.628;8.924;2023-03-01T11:21:23;19.23;;;15.25;;
1140;SDS011;559;48.628;8.924;2023-03-01T11:23:50;18.30;;;16.45;;
1140;SDS011;559;48.628;8.924;2023-03-01T11:26:17;20.13;;;15.52;;
1140;SDS011;559;48.628;8.924;2023-03-01T11:28:44;20.02;;;17.67;;
1140;SDS011;559;48.628;8.924;2023-03-01T11:31:17;22.50;;;16.98;;
1140;SDS011;559;48.628;8.924;2023-03-01T11:33:44;21.73;;;16.48;;
1140;SDS011;559;48.628;8.924;2023-03-01T11:36:15;22.40;;;15.70;;
1140;SDS011;559;48.628;8.924;2023-03-01T11:38:43;19.95;;;17.83;;
1140;SDS011;559;48.628;8.924;2023-03-01T11:41:12;17.85;;;15.75;;
1140;SDS011;559;48.628;8.924;2023-03-01T11:43:44;24.08;;;16.45;;
1140;SDS011;559;48.628;8.924;2023-03-01T11:46:29;19.25;;;15.95;;
1140;SDS011;559;48.628;8.924;2023-03-01T11:49:38;19.70;;;15.68;;
1140;SDS011;559;48.628;8.924;2023-03-01T11:52:18;16.25;;;14.60;;
1140;SDS011;559;48.628;8.924;2023-03-01T11:54:52;15.80;;;13.82;;
1140;SDS011;559;48.628;8.924;2023-03-01T11:57:28;19.75;;;15.40;;
1140;SDS011;559;48.628;8.924;2023-03-01T12:00:14;17.35;;;15.50;;
1140;SDS011;559;48.628;8.924;2023-03-01T12:08:32;18.58;;;15.70;;
1140;SDS011;559;48.628;8.924;2023-03-01T12:11:03;17.02;;;14.68;;
1140;SDS011;559;48.628;8.924;2023-03-01T12:13:42;20.08;;;15.52;;
1140;SDS011;559;48.628;8.924;2023-03-01T12:16:29;17.50;;;15.55;;
1140;SDS011;559;48.628;8.924;2023-03-01T12:19:20;17.05;;;14.48;;
1140;SDS011;559;48.628;8.924;2023-03-01T12:21:59;19.20;;;14.75;;
1140;SDS011;559;48.628;8.924;2023-03-01T12:24:43;22.08;;;16.92;;
1140;SDS011;559;48.628;8.924;2023-03-01T12:27:19;18.80;;;14.45;;
1140;SDS011;559;48.628;8.924;2023-03-01T12:30:05;18.80;;;16.10;;
1140;SDS011;559;48.628;8.924;2023-03-01T12:32:43;17.98;;;16.08;;
1140;SDS011;559;48.628;8.924;2023-03-01T12:38:13;20.02;;;14.70;;
1140;SDS011;559;48.628;8.924;2023-03-01T12:41:00;18.05;;;14.45;;
1140;SDS011;559;48.628;8.924;2023-03-01T12:43:44;24.35;;;14.52;;
1140;SDS011;559;48.628;8.924;2023-03-01T12:46:23;17.45;;;13.45;;
1140;SDS011;559;48.628;8.924;2023-03-01T12:48:59;21.48;;;14.73;;
1140;SDS011;559;48.628;8.924;2023-03-01T12:51:32;18.42;;;15.38;;
1140;SDS011;559;48.628;8.924;2023-03-01T12:54:01;19.85;;;14.60;;
1140;SDS011;559;48.628;8.924;2023-03-01T12:56:35;17.25;;;15.45;;
1140;SDS011;559;48.628;8.924;2023-03-01T12:59:04;18.77;;;13.85;;
1140;SDS011;559;48.628;8.924;2023-03-01T13:01:40;18.08;;;13.88;;
1140;SDS011;559;48.628;8.924;2023-03-01T13:04:14;16.17;;;14.52;;
1140;SDS011;559;48.628;8.924;2023-03-01T13:06:53;18.38;;;16.48;;
1140;SDS011;559;48.628;8.924;2023-03-01T13:09:25;19.63;;;14.82;;
1140;SDS011;559;48.628;8.924;2023-03-01T13:11:58;22.67;;;14.93;;
1140;SDS011;559;48.628;8.924;2023-03-01T13:14:35;20.70;;;15.73;;
1140;SDS011;559;48.628;8.924;2023-03-01T13:17:03;21.45;;;14.57;;
1140;SDS011;559;48.628;8.924;2023-03-01T13:19:30;14.77;;;13.27;;
1140;SDS011;559;48.628;8.924;2023-03-01T13:21:59;15.35;;;13.18;;
1140;SDS011;559;48.628;8.924;2023-03-01T13:24:33;20.40;;;16.00;;
1140;SDS011;559;48.628;8.924;2023-03-01T13:27:10;19.38;;;14.65;;
1140;SDS011;559;48.628;8.924;2023-03-01T13:29:54;18.45;;;14.27;;
1140;SDS011;559;48.628;8.924;2023-03-01T13:32:25;17.00;;;13.90;;
1140;SDS011;559;48.628;8.924;2023-03-01T13:34:54;19.50;;;14.68;;
1140;SDS011;559;48.628;8.924;2023-03-01T13:37:29;14.10;;;12.30;;
1140;SDS011;559;48.628;8.924;2023-03-01T13:40:02;19.77;;;14.65;;
1140;SDS011;559;48.628;8.924;2023-03-01T13:42:42;19.98;;;14.00;;
1140;SDS011;559;48.628;8.924;2023-03-01T13:45:16;23.67;;;14.27;;
1140;SDS011;559;48.628;8.924;2023-03-01T13:47:50;24.40;;;13.70;;
1140;SDS011;559;48.628;8.924;2023-03-01T13:50:21;17.35;;;12.02;;
1140;SDS011;559;48.628;8.924;2023-03-01T13:52:52;15.90;;;13.57;;
1140;SDS011;559;48.628;8.924;2023-03-01T13:55:23;17.95;;;14.40;;
1140;SDS011;559;48.628;8.924;2023-03-01T13:57:53;14.05;;;12.05;;
1140;SDS011;559;48.628;8.924;2023-03-01T14:00:26;15.45;;;12.52;;
1140;SDS011;559;48.628;8.924;2023-03-01T14:03:02;21.45;;;12.73;;
1140;SDS011;559;48.628;8.924;2023-03-01T14:05:35;14.43;;;12.15;;
1140;SDS011;559;48.628;8.924;2023-03-01T14:08:19;13.10;;;11.70;;
1140;SDS011;559;48.628;8.924;2023-03-01T14:11:00;15.95;;;13.00;;
1140;SDS011;559;48.628;8.924;2023-03-01T14:13:49;17.38;;;12.68;;
1140;SDS011;559;48.628;8.924;2023-03-01T14:16:29;16.50;;;12.63;;
1140;SDS011;559;48.628;8.924;2023-03-01T14:19:05;17.90;;;12.30;;
1140;SDS011;559;48.628;8.924;2023-03-01T14:21:44;17.00;;;13.00;;
1140;SDS011;559;48.628;8.924;2023-03-01T14:24:20;17.23;;;12.75;;
1140;SDS011;559;48.628;8.924;2023-03-01T14:26:49;13.45;;;12.07;;
1140;SDS011;559;48.628;8.924;2023-03-01T14:29:24;15.65;;;13.02;;
1140;SDS011;559;48.628;8.924;2023-03-01T14:31:52;14.70;;;12.50;;
1140;SDS011;559;48.628;8.924;2023-03-01T14:34:20;14.23;;;11.88;;
1140;SDS011;559;48.628;8.924;2023-03-01T14:36:51;15.30;;;13.10;;
1140;SDS011;559;48.628;8.924;2023-03-01T14:39:23;16.38;;;12.30;;
1140;SDS011;559;48.628;8.924;2023-03-01T14:41:51;18.83;;;13.45;;
1140;SDS011;559;48.628;8.924;2023-03-01T14:44:21;16.02;;;13.02;;
1140;SDS011;559;48.628;8.924;2023-03-01T14:46:54;17.52;;;13.57;;
1140;SDS011;559;48.628;8.924;2023-03-01T14:49:29;18.38;;;12.52;;
1140;SDS011;559;48.628;8.924;2023-03-01T14:51:58;19.73;;;13.63;;
1140;SDS011;559;48.628;8.924;2023-03-01T14:54:40;22.08;;;13.50;;
1140;SDS011;559;48.628;8.924;2023-03-01T14:57:12;18.38;;;14.75;;
1140;SDS011;559;48.628;8.924;2023-03-01T14:59:42;17.95;;;13.45;;
1140;SDS011;559;48.628;8.924;2023-03-01T15:02:11;16.60;;;14.73;;
1140;SDS011;559;48.628;8.924;2023-03-01T15:04:42;20.67;;;14.18;;
1140;SDS011;559;48.628;8.924;2023-03-01T15:07:12;18.20;;;14.32;;
1140;SDS011;559;48.628;8.924;2023-03-01T15:09:44;18.92;;;14.63;;
1140;SDS011;559;48.628;8.924;2023-03-01T15:17:48;25.58;;;13.10;;
1140;SDS011;559;48.628;8.924;2023-03-01T15:20:20;16.30;;;13.23;;
1140;SDS011;559;48.628;8.924;2023-03-01T15:22:52;18.90;;;14.80;;